sensor_id;sensor_type;location;lat;lon;timestamp;P1;durP1;ratioP1;P2;durP2;ratioP2
81265;SDS011;70748;52.510;13.410;2023-08-01T00:00:00;10.82;;;4.25;;
81265;SDS011;70748;52.510;13.410;2023-08-01T00:02:28;12.73;;;4.38;;
81265;SDS011;70748;52.510;13.410;2023-08-01T00:04:54;9.60;;;4.60;;
81265;SDS011;70748;52.510;13.410;2023-08-01T00:07:19;12.35;;;4.80;;
81265;SDS011;70748;52.510;13.410;2023-08-01T00:09:45;9.50;;;4.60;;
81265;SDS011;70748;52.510;13.410;2023-08-01T00:12:11;12.18;;;5.18;;
81265;SDS011;70748;52.510;13.410;2023-08-01T00:14:36;8.85;;;4.63;;
81265;SDS011;70748;52.510;13.410;2023-08-01T00:17:02;10.27;;;4.22;;
81265;SDS011;70748;52.510;13.410;2023-08-01T00:19:28;14.88;;;4.82;;
81265;SDS011;70748;52.510;13.410;2023-08-01T00:21:54;13.43;;;5.25;;
81265;SDS011;70748;52.510;13.410;2023-08-01T00:24:19;9.70;;;4.35;;
81265;SDS011;70748;52.510;13.410;2023-08-01T00:26:45;14.18;;;4.50;;
81265;SDS011;70748;52.510;13.410;2023-08-01T00:29:13;10.02;;;4.53;;
81265;SDS011;70748;52.510;13.410;2023-08-01T00:31:38;10.82;;;4.60;;
81265;SDS011;70748;52.510;13.410;2023-08-01T00:34:04;7.50;;;3.90;;
81265;SDS011;70748;52.510;13.410;2023-08-01T00:36:30;5.45;;;3.53;;
81265;SDS011;70748;52.510;13.410;2023-08-01T00:38:55;11.48;;;4.28;;
81265;SDS011;70748;52.510;13.410;2023-08-01T00:41:21;10.35;;;3.78;;
81265;SDS011;70748;52.510;13.410;2023-08-01T00:43:47;5.05;;;3.00;;
81265;SDS011;70748;52.510;13.410;2023-08-01T00:46:12;7.38;;;3.15;;
81265;SDS011;70748;52.510;13.410;2023-08-01T00:48:38;6.85;;;3.22;;
81265;SDS011;70748;52.510;13.410;2023-08-01T00:51:04;7.13;;;3.78;;
81265;SDS011;70748;52.510;13.410;2023-08-01T00:53:31;6.40;;;3.47;;
81265;SDS011;70748;52.510;13.410;2023-08-01T00:55:57;7.63;;;3.55;;
81265;SDS011;70748;52.510;13.410;2023-08-01T00:58:24;5.60;;;3.10;;
81265;SDS011;70748;52.510;13.410;2023-08-01T01:00:50;5.85;;;3.38;;
81265;SDS011;70748;52.510;13.410;2023-08-01T01:03:16;5.72;;;3.42;;
81265;SDS011;70748;52.510;13.410;2023-08-01T01:08:31;6.20;;;3.40;;
81265;SDS011;70748;52.510;13.410;2023-08-01T01:10:57;5.22;;;3.25;;
81265;SDS011;70748;52.510;13.410;2023-08-01T01:13:23;5.97;;;3.83;;
81265;SDS011;70748;52.510;13.410;2023-08-01T01:15:49;4.97;;;3.35;;
81265;SDS011;70748;52.510;13.410;2023-08-01T01:18:14;5.80;;;3.47;;
81265;SDS011;70748;52.510;13.410;2023-08-01T01:20:40;6.13;;;4.10;;
81265;SDS011;70748;52.510;13.410;2023-08-01T01:23:05;7.22;;;3.60;;
81265;SDS011;70748;52.510;13.410;2023-08-01T01:25:33;9.88;;;4.80;;
81265;SDS011;70748;52.510;13.410;2023-08-01T01:28:01;5.75;;;3.88;;
81265;SDS011;70748;52.510;13.410;2023-08-01T01:30:29;6.18;;;3.63;;
81265;SDS011;70748;52.510;13.410;2023-08-01T01:32:55;7.13;;;4.10;;
81265;SDS011;70748;52.510;13.410;2023-08-01T01:35:22;6.68;;;3.70;;
81265;SDS011;70748;52.510;13.410;2023-08-01T01:37:48;8.68;;;4.57;;
81265;SDS011;70748;52.510;13.410;2023-08-01T01:40:14;8.77;;;4.07;;
81265;SDS011;70748;52.510;13.410;2023-08-01T01:42:40;6.97;;;3.97;;
81265;SDS011;70748;52.510;13.410;2023-08-01T01:45:05;12.27;;;4.20;;
81265;SDS011;70748;52.510;13.410;2023-08-01T01:47:31;10.60;;;4.25;;
81265;SDS011;70748;52.510;13.410;2023-08-01T01:49:57;6.97;;;4.20;;
81265;SDS011;70748;52.510;13.410;2023-08-01T01:52:23;10.75;;;4.30;;
81265;SDS011;70748;52.510;13.410;2023-08-01T01:54:48;8.57;;;4.00;;
81265;SDS011;70748;52.510;13.410;2023-08-01T01:57:14;9.45;;;4.38;;
81265;SDS011;70748;52.510;13.410;2023-08-01T01:59:39;12.00;;;4.35;;
81265;SDS011;70748;52.510;13.410;2023-08-01T02:02:05;9.57;;;5.05;;
81265;SDS011;70748;52.510;13.410;2023-08-01T02:04:31;6.95;;;4.10;;
81265;SDS011;70748;52.510;13.410;2023-08-01T02:06:57;9.55;;;4.88;;
81265;SDS011;70748;52.510;13.410;2023-08-01T02:09:22;9.57;;;4.57;;
81265;SDS011;70748;52.510;13.410;2023-08-01T02:11:48;12.07;;;4.70;;
81265;SDS011;70748;52.510;13.410;2023-08-01T02:14:14;8.88;;;4.53;;
81265;SDS011;70748;52.510;13.410;2023-08-01T02:16:40;9.73;;;4.40;;
81265;SDS011;70748;52.510;13.410;2023-08-01T02:19:06;10.20;;;4.15;;
81265;SDS011;70748;52.510;13.410;2023-08-01T02:21:32;10.48;;;4.80;;
81265;SDS011;70748;52.510;13.410;2023-08-01T02:23:57;8.73;;;4.53;;
81265;SDS011;70748;52.510;13.410;2023-08-01T02:26:23;6.93;;;4.43;;
81265;SDS011;70748;52.510;13.410;2023-08-01T02:28:49;11.90;;;4.78;;
81265;SDS011;70748;52.510;13.410;2023-08-01T02:31:15;10.10;;;5.35;;
81265;SDS011;70748;52.510;13.410;2023-08-01T02:33:41;7.43;;;4.00;;
81265;SDS011;70748;52.510;13.410;2023-08-01T02:36:07;11.18;;;4.82;;
81265;SDS011;70748;52.510;13.410;2023-08-01T02:38:33;9.07;;;4.45;;
81265;SDS011;70748;52.510;13.410;2023-08-01T02:40:58;7.70;;;4.25;;
81265;SDS011;70748;52.510;13.410;2023-08-01T02:43:24;10.05;;;4.45;;
81265;SDS011;70748;52.510;13.410;2023-08-01T02:45:50;8.00;;;4.45;;
81265;SDS011;70748;52.510;13.410;2023-08-01T02:48:15;12.68;;;4.82;;
81265;SDS011;70748;52.510;13.410;2023-08-01T02:50:41;9.57;;;4.55;;
81265;SDS011;70748;52.510;13.410;2023-08-01T02:53:07;14.27;;;4.97;;
81265;SDS011;70748;52.510;13.410;2023-08-01T02:55:33;8.60;;;4.55;;
81265;SDS011;70748;52.510;13.410;2023-08-01T02:57:58;11.55;;;4.93;;
81265;SDS011;70748;52.510;13.410;2023-08-01T03:00:24;9.80;;;4.93;;
81265;SDS011;70748;52.510;13.410;2023-08-01T03:02:50;9.90;;;5.03;;
81265;SDS011;70748;52.510;13.410;2023-08-01T03:05:16;7.78;;;4.22;;
81265;SDS011;70748;52.510;13.410;2023-08-01T03:07:42;15.80;;;6.28;;
81265;SDS011;70748;52.510;13.410;2023-08-01T03:10:08;8.05;;;4.30;;
81265;SDS011;70748;52.510;13.410;2023-08-01T03:12:34;9.07;;;4.85;;
81265;SDS011;70748;52.510;13.410;2023-08-01T03:15:00;12.05;;;5.03;;
81265;SDS011;70748;52.510;13.410;2023-08-01T03:17:26;10.52;;;5.35;;
81265;SDS011;70748;52.510;13.410;2023-08-01T03:19:52;17.50;;;5.45;;
81265;SDS011;70748;52.510;13.410;2023-08-01T03:22:17;13.88;;;4.80;;
81265;SDS011;70748;52.510;13.410;2023-08-01T03:24:43;14.40;;;5.68;;
81265;SDS011;70748;52.510;13.410;2023-08-01T03:27:09;7.63;;;4.45;;
81265;SDS011;70748;52.510;13.410;2023-08-01T03:29:34;9.43;;;4.53;;
81265;SDS011;70748;52.510;13.410;2023-08-01T03:32:00;8.63;;;4.45;;
81265;SDS011;70748;52.510;13.410;2023-08-01T03:34:26;9.13;;;4.22;;
81265;SDS011;70748;52.510;13.410;2023-08-01T03:36:52;7.20;;;3.92;;
81265;SDS011;70748;52.510;13.410;2023-08-01T03:39:18;9.20;;;4.18;;
81265;SDS011;70748;52.510;13.410;2023-08-01T03:41:43;6.70;;;4.15;;
81265;SDS011;70748;52.510;13.410;2023-08-01T03:44:09;6.10;;;4.07;;
81265;SDS011;70748;52.510;13.410;2023-08-01T03:46:34;6.70;;;4.50;;
81265;SDS011;70748;52.510;13.410;2023-08-01T03:49:00;5.97;;;3.80;;
81265;SDS011;70748;52.510;13.410;2023-08-01T03:51:26;7.50;;;4.13;;
81265;SDS011;70748;52.510;13.410;2023-08-01T03:53:51;8.93;;;4.28;;
81265;SDS011;70748;52.510;13.410;2023-08-01T03:56:17;11.68;;;4.40;;
81265;SDS011;70748;52.510;13.410;2023-08-01T03:58:43;6.82;;;4.10;;
81265;SDS011;70748;52.510;13.410;2023-08-01T04:01:08;10.40;;;3.92;;
81265;SDS011;70748;52.510;13.410;2023-08-01T04:03:34;6.90;;;3.97;;
81265;SDS011;70748;52.510;13.410;2023-08-01T04:06:00;8.32;;;3.90;;
81265;SDS011;70748;52.510;13.410;2023-08-01T04:08:25;8.80;;;4.30;;
81265;SDS011;70748;52.510;13.410;2023-08-01T04:10:51;7.60;;;4.13;;
81265;SDS011;70748;52.510;13.410;2023-08-01T04:13:17;6.63;;;3.85;;
81265;SDS011;70748;52.510;13.410;2023-08-01T04:15:42;8.35;;;3.88;;
81265;SDS011;70748;52.510;13.410;2023-08-01T04:18:08;7.93;;;4.13;;
81265;SDS011;70748;52.510;13.410;2023-08-01T04:20:34;6.65;;;4.03;;
81265;SDS011;70748;52.510;13.410;2023-08-01T04:22:59;6.82;;;4.20;;
81265;SDS011;70748;52.510;13.410;2023-08-01T04:25:25;6.80;;;4.18;;
81265;SDS011;70748;52.510;13.410;2023-08-01T04:27:52;8.63;;;4.20;;
81265;SDS011;70748;52.510;13.410;2023-08-01T04:30:18;6.03;;;3.72;;
81265;SDS011;70748;52.510;13.410;2023-08-01T04:32:43;7.50;;;3.83;;
81265;SDS011;70748;52.510;13.410;2023-08-01T04:35:09;5.85;;;3.55;;
81265;SDS011;70748;52.510;13.410;2023-08-01T04:37:35;6.95;;;3.60;;
81265;SDS011;70748;52.510;13.410;2023-08-01T04:40:00;6.22;;;3.60;;
81265;SDS011;70748;52.510;13.410;2023-08-01T04:42:26;6.97;;;3.70;;
81265;SDS011;70748;52.510;13.410;2023-08-01T04:44:52;6.75;;;3.60;;
81265;SDS011;70748;52.510;13.410;2023-08-01T04:47:18;6.95;;;3.85;;
81265;SDS011;70748;52.510;13.410;2023-08-01T04:49:44;7.68;;;3.80;;
81265;SDS011;70748;52.510;13.410;2023-08-01T04:52:10;10.32;;;4.28;;
81265;SDS011;70748;52.510;13.410;2023-08-01T04:54:35;7.75;;;3.33;;
81265;SDS011;70748;52.510;13.410;2023-08-01T04:57:01;5.60;;;3.40;;
81265;SDS011;70748;52.510;13.410;2023-08-01T04:59:27;5.97;;;3.30;;
81265;SDS011;70748;52.510;13.410;2023-08-01T05:01:52;7.05;;;3.75;;
81265;SDS011;70748;52.510;13.410;2023-08-01T05:04:18;7.45;;;3.40;;
81265;SDS011;70748;52.510;13.410;2023-08-01T05:06:44;7.43;;;3.70;;
81265;SDS011;70748;52.510;13.410;2023-08-01T05:09:09;7.78;;;3.90;;
81265;SDS011;70748;52.510;13.410;2023-08-01T05:11:35;9.60;;;4.22;;
81265;SDS011;70748;52.510;13.410;2023-08-01T05:14:01;6.78;;;3.70;;
81265;SDS011;70748;52.510;13.410;2023-08-01T05:16:26;7.85;;;3.65;;
81265;SDS011;70748;52.510;13.410;2023-08-01T05:18:52;8.98;;;3.65;;
81265;SDS011;70748;52.510;13.410;2023-08-01T05:21:18;9.02;;;4.10;;
81265;SDS011;70748;52.510;13.410;2023-08-01T05:23:43;10.45;;;3.53;;
81265;SDS011;70748;52.510;13.410;2023-08-01T05:26:09;5.50;;;3.50;;
81265;SDS011;70748;52.510;13.410;2023-08-01T05:28:34;9.57;;;3.75;;
81265;SDS011;70748;52.510;13.410;2023-08-01T05:31:00;7.07;;;3.67;;
81265;SDS011;70748;52.510;13.410;2023-08-01T05:33:26;7.50;;;3.53;;
81265;SDS011;70748;52.510;13.410;2023-08-01T05:35:51;10.63;;;4.05;;
81265;SDS011;70748;52.510;13.410;2023-08-01T05:38:17;6.32;;;3.83;;
81265;SDS011;70748;52.510;13.410;2023-08-01T05:40:42;8.77;;;4.05;;
81265;SDS011;70748;52.510;13.410;2023-08-01T05:43:08;6.70;;;4.05;;
81265;SDS011;70748;52.510;13.410;2023-08-01T05:45:34;6.45;;;3.47;;
81265;SDS011;70748;52.510;13.410;2023-08-01T05:48:01;7.05;;;3.20;;
81265;SDS011;70748;52.510;13.410;2023-08-01T05:50:27;8.07;;;3.88;;
81265;SDS011;70748;52.510;13.410;2023-08-01T05:52:52;9.27;;;3.72;;
81265;SDS011;70748;52.510;13.410;2023-08-01T05:55:18;7.88;;;3.78;;
81265;SDS011;70748;52.510;13.410;2023-08-01T05:57:44;6.90;;;3.70;;
81265;SDS011;70748;52.510;13.410;2023-08-01T06:00:10;7.65;;;4.05;;
81265;SDS011;70748;52.510;13.410;2023-08-01T06:02:36;9.23;;;4.18;;
81265;SDS011;70748;52.510;13.410;2023-08-01T06:05:02;7.35;;;3.65;;
81265;SDS011;70748;52.510;13.410;2023-08-01T06:07:28;7.05;;;3.90;;
81265;SDS011;70748;52.510;13.410;2023-08-01T06:09:54;9.10;;;4.05;;
81265;SDS011;70748;52.510;13.410;2023-08-01T06:12:20;9.70;;;3.80;;
81265;SDS011;70748;52.510;13.410;2023-08-01T06:14:46;6.07;;;3.25;;
81265;SDS011;70748;52.510;13.410;2023-08-01T06:17:13;11.50;;;3.97;;
81265;SDS011;70748;52.510;13.410;2023-08-01T06:19:38;4.95;;;3.60;;
81265;SDS011;70748;52.510;13.410;2023-08-01T06:22:04;11.00;;;3.80;;
81265;SDS011;70748;52.510;13.410;2023-08-01T06:24:30;5.63;;;3.60;;
81265;SDS011;70748;52.510;13.410;2023-08-01T06:26:56;6.63;;;3.38;;
81265;SDS011;70748;52.510;13.410;2023-08-01T06:29:21;6.05;;;3.58;;
81265;SDS011;70748;52.510;13.410;2023-08-01T06:31:48;5.15;;;3.20;;
81265;SDS011;70748;52.510;13.410;2023-08-01T06:34:13;7.03;;;3.45;;
81265;SDS011;70748;52.510;13.410;2023-08-01T06:36:39;4.80;;;3.38;;
81265;SDS011;70748;52.510;13.410;2023-08-01T06:39:04;5.93;;;3.60;;
81265;SDS011;70748;52.510;13.410;2023-08-01T06:41:30;4.88;;;2.97;;
81265;SDS011;70748;52.510;13.410;2023-08-01T06:43:57;4.97;;;3.10;;
81265;SDS011;70748;52.510;13.410;2023-08-01T06:46:22;9.13;;;3.22;;
81265;SDS011;70748;52.510;13.410;2023-08-01T06:48:48;5.15;;;3.10;;
81265;SDS011;70748;52.510;13.410;2023-08-01T06:51:14;7.82;;;3.60;;
81265;SDS011;70748;52.510;13.410;2023-08-01T06:53:40;7.78;;;3.15;;
81265;SDS011;70748;52.510;13.410;2023-08-01T06:56:06;4.95;;;3.55;;
81265;SDS011;70748;52.510;13.410;2023-08-01T06:58:32;5.70;;;3.65;;
81265;SDS011;70748;52.510;13.410;2023-08-01T07:00:57;6.97;;;4.03;;
81265;SDS011;70748;52.510;13.410;2023-08-01T07:03:23;6.47;;;2.80;;
81265;SDS011;70748;52.510;13.410;2023-08-01T07:05:48;5.32;;;3.35;;
81265;SDS011;70748;52.510;13.410;2023-08-01T07:08:14;6.43;;;3.28;;
81265;SDS011;70748;52.510;13.410;2023-08-01T07:10:40;4.22;;;2.90;;
81265;SDS011;70748;52.510;13.410;2023-08-01T07:13:06;4.38;;;3.20;;
81265;SDS011;70748;52.510;13.410;2023-08-01T07:15:32;4.45;;;2.63;;
81265;SDS011;70748;52.510;13.410;2023-08-01T07:17:58;4.88;;;3.05;;
81265;SDS011;70748;52.510;13.410;2023-08-01T07:20:24;9.10;;;2.90;;
81265;SDS011;70748;52.510;13.410;2023-08-01T07:22:50;4.55;;;3.10;;
81265;SDS011;70748;52.510;13.410;2023-08-01T07:25:16;5.57;;;3.00;;
81265;SDS011;70748;52.510;13.410;2023-08-01T07:27:42;5.70;;;2.72;;
81265;SDS011;70748;52.510;13.410;2023-08-01T07:30:08;6.50;;;2.70;;
81265;SDS011;70748;52.510;13.410;2023-08-01T07:32:35;4.60;;;2.95;;
81265;SDS011;70748;52.510;13.410;2023-08-01T07:35:02;5.47;;;3.10;;
81265;SDS011;70748;52.510;13.410;2023-08-01T07:37:28;7.38;;;3.45;;
81265;SDS011;70748;52.510;13.410;2023-08-01T07:39:55;3.78;;;2.72;;
81265;SDS011;70748;52.510;13.410;2023-08-01T07:42:22;3.63;;;2.40;;
81265;SDS011;70748;52.510;13.410;2023-08-01T07:44:48;6.28;;;2.78;;
81265;SDS011;70748;52.510;13.410;2023-08-01T07:47:13;3.97;;;3.00;;
81265;SDS011;70748;52.510;13.410;2023-08-01T07:49:39;5.97;;;2.45;;
81265;SDS011;70748;52.510;13.410;2023-08-01T07:52:05;3.30;;;2.40;;
81265;SDS011;70748;52.510;13.410;2023-08-01T07:54:30;3.58;;;2.42;;
81265;SDS011;70748;52.510;13.410;2023-08-01T07:56:56;4.20;;;2.50;;
81265;SDS011;70748;52.510;13.410;2023-08-01T07:59:22;6.05;;;2.80;;
81265;SDS011;70748;52.510;13.410;2023-08-01T08:01:47;11.65;;;2.70;;
81265;SDS011;70748;52.510;13.410;2023-08-01T08:04:13;5.97;;;2.53;;
81265;SDS011;70748;52.510;13.410;2023-08-01T08:06:39;3.17;;;2.28;;
81265;SDS011;70748;52.510;13.410;2023-08-01T08:09:05;3.33;;;2.45;;
81265;SDS011;70748;52.510;13.410;2023-08-01T08:11:31;3.75;;;2.50;;
81265;SDS011;70748;52.510;13.410;2023-08-01T08:13:58;3.75;;;2.67;;
81265;SDS011;70748;52.510;13.410;2023-08-01T08:16:24;3.80;;;2.53;;
81265;SDS011;70748;52.510;13.410;2023-08-01T08:18:50;3.90;;;2.08;;
81265;SDS011;70748;52.510;13.410;2023-08-01T08:21:16;3.05;;;2.35;;
81265;SDS011;70748;52.510;13.410;2023-08-01T08:23:41;6.97;;;2.40;;
81265;SDS011;70748;52.510;13.410;2023-08-01T08:26:07;2.90;;;2.05;;
81265;SDS011;70748;52.510;13.410;2023-08-01T08:28:33;5.43;;;2.40;;
81265;SDS011;70748;52.510;13.410;2023-08-01T08:30:59;4.10;;;2.40;;
81265;SDS011;70748;52.510;13.410;2023-08-01T08:33:27;3.25;;;2.42;;
81265;SDS011;70748;52.510;13.410;2023-08-01T08:35:53;4.53;;;2.25;;
81265;SDS011;70748;52.510;13.410;2023-08-01T08:38:19;3.85;;;2.28;;
81265;SDS011;70748;52.510;13.410;2023-08-01T08:40:48;3.78;;;2.17;;
81265;SDS011;70748;52.510;13.410;2023-08-01T08:43:23;4.03;;;2.13;;
81265;SDS011;70748;52.510;13.410;2023-08-01T08:45:49;5.85;;;1.90;;
81265;SDS011;70748;52.510;13.410;2023-08-01T08:48:18;2.78;;;2.05;;
81265;SDS011;70748;52.510;13.410;2023-08-01T08:50:45;2.80;;;2.28;;
81265;SDS011;70748;52.510;13.410;2023-08-01T08:53:11;3.92;;;2.30;;
81265;SDS011;70748;52.510;13.410;2023-08-01T08:55:41;4.10;;;2.35;;
81265;SDS011;70748;52.510;13.410;2023-08-01T08:58:07;4.88;;;2.45;;
81265;SDS011;70748;52.510;13.410;2023-08-01T09:00:35;2.05;;;1.83;;
81265;SDS011;70748;52.510;13.410;2023-08-01T09:03:02;2.42;;;1.95;;
81265;SDS011;70748;52.510;13.410;2023-08-01T09:05:30;2.65;;;2.00;;
81265;SDS011;70748;52.510;13.410;2023-08-01T09:07:59;2.25;;;1.70;;
81265;SDS011;70748;52.510;13.410;2023-08-01T09:10:31;2.55;;;1.90;;
81265;SDS011;70748;52.510;13.410;2023-08-01T09:12:57;3.63;;;1.80;;
81265;SDS011;70748;52.510;13.410;2023-08-01T09:15:23;3.72;;;1.70;;
81265;SDS011;70748;52.510;13.410;2023-08-01T09:17:52;2.13;;;1.75;;
81265;SDS011;70748;52.510;13.410;2023-08-01T09:20:25;1.80;;;1.48;;
81265;SDS011;70748;52.510;13.410;2023-08-01T09:22:52;2.42;;;1.60;;
81265;SDS011;70748;52.510;13.410;2023-08-01T09:25:17;1.65;;;1.55;;
81265;SDS011;70748;52.510;13.410;2023-08-01T09:27:43;4.18;;;1.70;;
81265;SDS011;70748;52.510;13.410;2023-08-01T09:30:09;2.60;;;1.70;;
81265;SDS011;70748;52.510;13.410;2023-08-01T09:32:38;1.63;;;1.40;;
81265;SDS011;70748;52.510;13.410;2023-08-01T09:35:04;2.40;;;1.30;;
81265;SDS011;70748;52.510;13.410;2023-08-01T09:37:40;1.27;;;1.17;;
81265;SDS011;70748;52.510;13.410;2023-08-01T09:40:07;1.50;;;1.10;;
81265;SDS011;70748;52.510;13.410;2023-08-01T09:42:40;3.00;;;1.05;;
81265;SDS011;70748;52.510;13.410;2023-08-01T09:45:16;1.90;;;1.38;;
81265;SDS011;70748;52.510;13.410;2023-08-01T09:47:43;1.58;;;1.40;;
81265;SDS011;70748;52.510;13.410;2023-08-01T09:50:10;3.90;;;1.33;;
81265;SDS011;70748;52.510;13.410;2023-08-01T09:52:36;1.33;;;1.20;;
81265;SDS011;70748;52.510;13.410;2023-08-01T09:55:02;4.72;;;1.30;;
81265;SDS011;70748;52.510;13.410;2023-08-01T09:57:31;2.35;;;1.20;;
81265;SDS011;70748;52.510;13.410;2023-08-01T09:59:59;3.70;;;1.25;;
81265;SDS011;70748;52.510;13.410;2023-08-01T10:02:25;1.92;;;1.17;;
81265;SDS011;70748;52.510;13.410;2023-08-01T10:04:54;0.82;;;0.80;;
81265;SDS011;70748;52.510;13.410;2023-08-01T10:07:23;1.08;;;0.88;;
81265;SDS011;70748;52.510;13.410;2023-08-01T10:12:19;1.50;;;1.10;;
81265;SDS011;70748;52.510;13.410;2023-08-01T10:14:46;2.25;;;1.02;;
81265;SDS011;70748;52.510;13.410;2023-08-01T10:17:12;2.88;;;0.90;;
81265;SDS011;70748;52.510;13.410;2023-08-01T10:19:40;1.77;;;1.40;;
81265;SDS011;70748;52.510;13.410;2023-08-01T10:22:07;2.00;;;1.15;;
81265;SDS011;70748;52.510;13.410;2023-08-01T10:24:34;2.97;;;0.85;;
81265;SDS011;70748;52.510;13.410;2023-08-01T10:27:19;2.78;;;1.25;;
81265;SDS011;70748;52.510;13.410;2023-08-01T10:29:55;1.75;;;1.17;;
81265;SDS011;70748;52.510;13.410;2023-08-01T10:32:32;1.42;;;1.33;;
81265;SDS011;70748;52.510;13.410;2023-08-01T10:35:02;1.15;;;1.08;;
81265;SDS011;70748;52.510;13.410;2023-08-01T10:37:38;2.42;;;1.40;;
81265;SDS011;70748;52.510;13.410;2023-08-01T10:40:06;1.17;;;1.00;;
81265;SDS011;70748;52.510;13.410;2023-08-01T10:42:38;1.42;;;1.15;;
81265;SDS011;70748;52.510;13.410;2023-08-01T10:45:05;2.33;;;1.60;;
81265;SDS011;70748;52.510;13.410;2023-08-01T10:47:31;3.25;;;1.50;;
81265;SDS011;70748;52.510;13.410;2023-08-01T10:49:57;2.58;;;1.17;;
81265;SDS011;70748;52.510;13.410;2023-08-01T10:52:24;2.83;;;1.10;;
81265;SDS011;70748;52.510;13.410;2023-08-01T10:54:57;2.95;;;1.45;;
81265;SDS011;70748;52.510;13.410;2023-08-01T10:57:27;2.38;;;1.50;;
81265;SDS011;70748;52.510;13.410;2023-08-01T10:59:54;3.15;;;1.30;;
81265;SDS011;70748;52.510;13.410;2023-08-01T11:02:25;2.42;;;1.23;;
81265;SDS011;70748;52.510;13.410;2023-08-01T11:04:58;3.35;;;1.38;;
81265;SDS011;70748;52.510;13.410;2023-08-01T11:07:28;3.55;;;1.50;;
81265;SDS011;70748;52.510;13.410;2023-08-01T11:12:33;4.13;;;1.65;;
81265;SDS011;70748;52.510;13.410;2023-08-01T11:15:03;6.40;;;2.10;;
81265;SDS011;70748;52.510;13.410;2023-08-01T11:17:31;2.67;;;1.60;;
81265;SDS011;70748;52.510;13.410;2023-08-01T11:20:16;2.67;;;1.70;;
81265;SDS011;70748;52.510;13.410;2023-08-01T11:22:58;5.70;;;1.90;;
81265;SDS011;70748;52.510;13.410;2023-08-01T11:25:32;2.53;;;1.60;;
81265;SDS011;70748;52.510;13.410;2023-08-01T11:28:06;2.08;;;1.83;;
81265;SDS011;70748;52.510;13.410;2023-08-01T11:30:34;2.85;;;1.75;;
81265;SDS011;70748;52.510;13.410;2023-08-01T11:33:00;3.53;;;1.83;;
81265;SDS011;70748;52.510;13.410;2023-08-01T11:35:28;3.03;;;1.67;;
81265;SDS011;70748;52.510;13.410;2023-08-01T11:37:54;3.17;;;1.90;;
81265;SDS011;70748;52.510;13.410;2023-08-01T11:40:20;3.35;;;1.70;;
81265;SDS011;70748;52.510;13.410;2023-08-01T11:42:49;4.25;;;1.95;;
81265;SDS011;70748;52.510;13.410;2023-08-01T11:45:18;3.42;;;2.28;;
81265;SDS011;70748;52.510;13.410;2023-08-01T11:47:45;4.30;;;2.67;;
81265;SDS011;70748;52.510;13.410;2023-08-01T11:50:12;4.45;;;2.58;;
81265;SDS011;70748;52.510;13.410;2023-08-01T11:52:38;6.90;;;2.55;;
81265;SDS011;70748;52.510;13.410;2023-08-01T11:55:04;3.28;;;2.50;;
81265;SDS011;70748;52.510;13.410;2023-08-01T11:57:30;7.18;;;2.85;;
81265;SDS011;70748;52.510;13.410;2023-08-01T11:59:56;4.07;;;2.28;;
81265;SDS011;70748;52.510;13.410;2023-08-01T12:02:25;4.65;;;2.63;;
81265;SDS011;70748;52.510;13.410;2023-08-01T12:04:52;7.35;;;2.83;;
81265;SDS011;70748;52.510;13.410;2023-08-01T12:07:19;3.08;;;2.42;;
81265;SDS011;70748;52.510;13.410;2023-08-01T12:09:54;4.50;;;2.90;;
81265;SDS011;70748;52.510;13.410;2023-08-01T12:12:27;6.97;;;2.50;;
81265;SDS011;70748;52.510;13.410;2023-08-01T12:14:54;9.38;;;3.30;;
81265;SDS011;70748;52.510;13.410;2023-08-01T12:17:20;6.70;;;3.42;;
81265;SDS011;70748;52.510;13.410;2023-08-01T12:19:48;4.32;;;2.85;;
81265;SDS011;70748;52.510;13.410;2023-08-01T12:22:13;5.53;;;3.28;;
81265;SDS011;70748;52.510;13.410;2023-08-01T12:24:39;7.60;;;3.00;;
81265;SDS011;70748;52.510;13.410;2023-08-01T12:27:06;6.25;;;3.15;;
81265;SDS011;70748;52.510;13.410;2023-08-01T12:29:33;5.80;;;3.13;;
81265;SDS011;70748;52.510;13.410;2023-08-01T12:31:59;8.73;;;3.00;;
81265;SDS011;70748;52.510;13.410;2023-08-01T12:34:24;7.82;;;3.13;;
81265;SDS011;70748;52.510;13.410;2023-08-01T12:36:50;5.05;;;3.00;;
81265;SDS011;70748;52.510;13.410;2023-08-01T12:39:16;13.13;;;3.45;;
81265;SDS011;70748;52.510;13.410;2023-08-01T12:41:41;5.72;;;3.30;;
81265;SDS011;70748;52.510;13.410;2023-08-01T12:44:07;5.20;;;3.13;;
81265;SDS011;70748;52.510;13.410;2023-08-01T12:46:32;4.75;;;2.65;;
81265;SDS011;70748;52.510;13.410;2023-08-01T12:48:58;5.25;;;2.70;;
81265;SDS011;70748;52.510;13.410;2023-08-01T12:51:24;5.55;;;2.85;;
81265;SDS011;70748;52.510;13.410;2023-08-01T12:53:50;5.38;;;3.20;;
81265;SDS011;70748;52.510;13.410;2023-08-01T12:56:15;7.53;;;3.40;;
81265;SDS011;70748;52.510;13.410;2023-08-01T12:58:41;7.00;;;3.35;;
81265;SDS011;70748;52.510;13.410;2023-08-01T13:01:07;5.80;;;3.53;;
81265;SDS011;70748;52.510;13.410;2023-08-01T13:03:32;6.65;;;3.08;;
81265;SDS011;70748;52.510;13.410;2023-08-01T13:05:58;7.30;;;3.70;;
81265;SDS011;70748;52.510;13.410;2023-08-01T13:08:24;4.47;;;3.17;;
81265;SDS011;70748;52.510;13.410;2023-08-01T13:10:50;6.68;;;3.20;;
81265;SDS011;70748;52.510;13.410;2023-08-01T13:13:16;7.65;;;3.30;;
81265;SDS011;70748;52.510;13.410;2023-08-01T13:15:42;4.95;;;3.25;;
81265;SDS011;70748;52.510;13.410;2023-08-01T13:18:07;6.20;;;3.20;;
81265;SDS011;70748;52.510;13.410;2023-08-01T13:20:34;9.75;;;3.08;;
81265;SDS011;70748;52.510;13.410;2023-08-01T13:22:59;6.35;;;3.30;;
81265;SDS011;70748;52.510;13.410;2023-08-01T13:25:27;6.25;;;3.20;;
81265;SDS011;70748;52.510;13.410;2023-08-01T13:27:53;5.72;;;3.17;;
81265;SDS011;70748;52.510;13.410;2023-08-01T13:30:18;6.05;;;3.25;;
81265;SDS011;70748;52.510;13.410;2023-08-01T13:32:45;6.10;;;3.10;;
81265;SDS011;70748;52.510;13.410;2023-08-01T13:35:11;7.40;;;3.28;;
81265;SDS011;70748;52.510;13.410;2023-08-01T13:37:37;6.85;;;3.30;;
81265;SDS011;70748;52.510;13.410;2023-08-01T13:40:03;4.75;;;3.38;;
81265;SDS011;70748;52.510;13.410;2023-08-01T13:42:29;5.00;;;3.05;;
81265;SDS011;70748;52.510;13.410;2023-08-01T13:44:55;6.20;;;3.08;;
81265;SDS011;70748;52.510;13.410;2023-08-01T13:47:21;5.57;;;3.15;;
81265;SDS011;70748;52.510;13.410;2023-08-01T13:49:46;5.00;;;2.83;;
81265;SDS011;70748;52.510;13.410;2023-08-01T13:52:12;6.95;;;3.00;;
81265;SDS011;70748;52.510;13.410;2023-08-01T13:54:38;10.07;;;4.65;;
81265;SDS011;70748;52.510;13.410;2023-08-01T13:57:04;8.80;;;3.78;;
81265;SDS011;70748;52.510;13.410;2023-08-01T13:59:30;9.80;;;3.25;;
81265;SDS011;70748;52.510;13.410;2023-08-01T14:01:56;5.68;;;3.33;;
81265;SDS011;70748;52.510;13.410;2023-08-01T14:04:22;12.85;;;4.00;;
81265;SDS011;70748;52.510;13.410;2023-08-01T14:06:47;8.68;;;2.83;;
81265;SDS011;70748;52.510;13.410;2023-08-01T14:09:13;6.43;;;3.03;;
81265;SDS011;70748;52.510;13.410;2023-08-01T14:11:39;5.25;;;3.25;;
81265;SDS011;70748;52.510;13.410;2023-08-01T14:14:05;7.32;;;3.05;;
81265;SDS011;70748;52.510;13.410;2023-08-01T14:16:31;9.48;;;3.30;;
81265;SDS011;70748;52.510;13.410;2023-08-01T14:18:58;9.30;;;3.50;;
81265;SDS011;70748;52.510;13.410;2023-08-01T14:21:24;4.88;;;2.67;;
81265;SDS011;70748;52.510;13.410;2023-08-01T14:23:49;8.57;;;3.20;;
81265;SDS011;70748;52.510;13.410;2023-08-01T14:26:15;9.98;;;3.13;;
81265;SDS011;70748;52.510;13.410;2023-08-01T14:28:41;5.78;;;3.00;;
81265;SDS011;70748;52.510;13.410;2023-08-01T14:31:06;10.68;;;3.60;;
81265;SDS011;70748;52.510;13.410;2023-08-01T14:33:35;5.75;;;2.80;;
81265;SDS011;70748;52.510;13.410;2023-08-01T14:36:00;8.65;;;2.85;;